Decoded Metar for LFCK (CASTRES in FRANCE) (IATA:DCM) | Meteo·Mobile Aviation Weather
aviador You're here:

LFCK Decoded Metar

CASTRES in FRANCE
Report Time2019-04-20 10:00:00
UTC Time2019-04-20 10:14:27
Flight Rules vfr VFR
Wind110° at 17 kt
W.Decomp.*RWY 14: 14.7 kt HW 8.5 kt LCW
Visibility9999 m
Phenomena:N/A
Clouds:N/A
Expected CloudBase > 6,000 ft AGL from Temp-Dew spread
CeilingNone
Temp20°C
Dew Point05°C (38% RH)
AAT12.8°C
QNH1024 hPa
Raw Report
METAR LFCK 201000Z AUTO 11017KT 080V140 CAVOK 20/05 Q1024 TEMPO
12020G30KT=

Extra information for LFCK:More info

Metar Taf Metar & Taf Last 4 Metars F.Rules Stats Wind Profile Meteogram Temp Stats Airport Information Weather charts Add Link Nearby VenuesMetar ALERT Operation Metar Decoded Social comments